Time;durP1;ratioP1;P1;durP2;ratioP2;P2;SDS_P1;SDS_P2;PMS_P1;PMS_P2;Temp;Humidity;BMP_temperature;BMP_pressure;BME280_temperature;BME280_humidity;BME280_pressure;Samples;Min_cycle;Max_cycle;Signal;HPM_P1;HPM_P2
2022/11/23 00:00:14;;;;;;;9.00;1.90;;;;;;;4.56;69.33;97783.41;5185145;28;20558;-75
2022/11/23 00:03:04;;;;;;;5.40;2.00;;;;;;;4.39;69.25;97782.25;5166383;28;20531;-75
2022/11/23 00:05:54;;;;;;;4.57;1.88;;;;;;;4.40;68.86;97786.56;5166377;28;20412;-74
2022/11/23 00:08:44;;;;;;;8.15;2.25;;;;;;;4.31;68.31;97783.91;5188586;28;20048;-74
2022/11/23 00:11:35;;;;;;;13.45;2.20;;;;;;;4.33;69.35;97800.34;5181244;28;20428;-73
2022/11/23 00:14:25;;;;;;;7.28;2.05;;;;;;;4.26;68.95;97786.09;5168375;28;20050;-74
2022/11/23 00:17:15;;;;;;;10.32;1.90;;;;;;;4.28;69.07;97798.13;5172371;28;20131;-74
2022/11/23 00:20:07;;;;;;;7.40;2.22;;;;;;;4.36;69.50;97802.69;5170328;28;20057;-75
2022/11/23 00:22:57;;;;;;;6.18;2.30;;;;;;;4.16;69.49;97797.38;5164802;28;20117;-75
2022/11/23 00:25:48;;;;;;;8.57;2.38;;;;;;;4.27;69.85;97799.06;5167669;28;20061;-74
2022/11/23 00:28:39;;;;;;;13.93;3.90;;;;;;;4.31;70.51;97799.66;5170507;28;20065;-74
2022/11/23 00:31:31;;;;;;;14.23;3.47;;;;;;;4.49;70.15;97805.91;5168348;28;20184;-73
2022/11/23 00:34:22;;;;;;;6.47;2.42;;;;;;;4.76;69.12;97804.44;5178405;28;20057;-76
2022/11/23 00:37:14;;;;;;;10.07;2.50;;;;;;;4.72;69.24;97807.34;5182564;28;20057;-73
2022/11/23 00:40:05;;;;;;;9.40;2.60;;;;;;;4.39;70.27;97803.25;5167671;28;20073;-72
2022/11/23 00:42:55;;;;;;;9.18;2.50;;;;;;;4.34;70.18;97810.72;5167944;28;20085;-73
2022/11/23 00:45:48;;;;;;;11.55;2.42;;;;;;;4.27;71.22;97801.69;5175030;28;20046;-73
2022/11/23 00:48:38;;;;;;;9.20;2.78;;;;;;;4.50;70.60;97809.38;5170237;28;20054;-73
2022/11/23 00:51:31;;;;;;;7.15;2.70;;;;;;;4.48;70.36;97804.25;5174092;28;20046;-74
2022/11/23 00:54:21;;;;;;;7.78;3.17;;;;;;;4.55;70.75;97813.25;5185615;28;20107;-74
2022/11/23 00:57:12;;;;;;;11.48;3.63;;;;;;;4.49;70.80;97795.41;5188009;28;20050;-72
2022/11/23 01:00:05;;;;;;;11.38;4.00;;;;;;;4.79;70.75;97796.28;5185211;28;20052;-74
2022/11/23 01:02:56;;;;;;;9.15;3.67;;;;;;;4.86;71.12;97795.59;5181095;28;20092;-74
2022/11/23 01:05:46;;;;;;;14.00;3.97;;;;;;;4.88;71.20;97790.22;5186672;28;20125;-74
2022/11/23 01:08:37;;;;;;;11.07;3.65;;;;;;;4.86;70.39;97800.84;5181335;28;20050;-74
2022/11/23 01:11:30;;;;;;;10.95;4.40;;;;;;;4.82;71.15;97803.91;5169329;28;20105;-74
2022/11/23 01:14:23;;;;;;;15.88;5.00;;;;;;;4.94;70.83;97798.38;5185116;28;20508;-74
2022/11/23 01:17:14;;;;;;;9.88;4.10;;;;;;;4.96;71.50;97798.22;5169374;28;20504;-74
2022/11/23 01:20:07;;;;;;;14.02;4.75;;;;;;;4.95;70.48;97797.41;5166287;28;20181;-75
2022/11/23 01:23:01;;;;;;;10.05;5.47;;;;;;;5.07;70.93;97803.38;5171441;28;20452;-73
2022/11/23 01:25:51;;;;;;;7.45;3.60;;;;;;;5.22;71.38;97780.09;5169104;28;20046;-74
2022/11/23 01:28:46;;;;;;;13.18;4.57;;;;;;;5.29;69.54;97799.59;5170535;28;20176;-73
2022/11/23 01:31:36;;;;;;;16.30;4.00;;;;;;;5.25;70.52;97803.47;5169598;28;20467;-73
2022/11/23 01:34:36;;;;;;;10.45;3.90;;;;;;;5.28;70.60;97815.53;5179823;28;20509;-74
2022/11/23 01:37:27;;;;;;;10.35;3.88;;;;;;;5.09;70.07;97814.53;5182073;28;20061;-73
2022/11/23 01:40:17;;;;;;;11.63;4.00;;;;;;;4.98;69.48;97814.69;5180473;28;20143;-74
2022/11/23 01:43:14;;;;;;;10.27;4.53;;;;;;;4.82;70.01;97785.50;5162963;28;20057;-74
2022/11/23 01:46:05;;;;;;;10.93;4.53;;;;;;;4.75;70.45;97813.28;5186668;28;20056;-73
2022/11/23 01:49:06;;;;;;;16.95;4.63;;;;;;;4.84;70.29;97812.47;5152777;28;20557;-74
2022/11/23 01:52:03;;;;;;;11.35;4.20;;;;;;;4.63;69.73;97810.75;5161962;28;20131;-74
2022/11/23 01:54:57;;;;;;;8.82;4.10;;;;;;;4.62;68.98;97817.00;5173209;28;20068;-74
2022/11/23 01:57:54;;;;;;;8.48;3.83;;;;;;;4.52;69.67;97817.94;5163224;28;20535;-73
2022/11/23 02:00:46;;;;;;;7.05;3.90;;;;;;;4.47;69.35;97823.59;5173316;28;20188;-73
2022/11/23 02:03:41;;;;;;;11.57;4.07;;;;;;;4.40;69.44;97819.84;5181107;28;20045;-73
2022/11/23 02:06:32;;;;;;;8.73;3.35;;;;;;;4.38;69.59;97824.41;5178678;28;20119;-73
2022/11/23 02:09:24;;;;;;;14.80;3.63;;;;;;;4.34;70.39;97829.09;5161000;28;20081;-73
2022/11/23 02:12:15;;;;;;;8.60;3.38;;;;;;;4.32;69.66;97817.06;5161636;28;20053;-73
2022/11/23 02:15:06;;;;;;;9.82;3.42;;;;;;;4.44;70.24;97826.50;5167397;28;20535;-73
2022/11/23 02:17:58;;;;;;;8.85;2.80;;;;;;;4.53;70.37;97825.66;5157165;28;20054;-73
2022/11/23 02:20:49;;;;;;;9.50;3.35;;;;;;;4.34;70.80;97815.13;5168804;28;20053;-73
2022/11/23 02:23:50;;;;;;;7.68;3.00;;;;;;;4.36;71.32;97831.56;5169959;28;20072;-73
2022/11/23 02:26:40;;;;;;;7.63;3.20;;;;;;;4.41;70.79;97821.50;5166815;28;20104;-73
2022/11/23 02:29:33;;;;;;;12.40;4.00;;;;;;;4.30;70.63;97816.34;5173308;28;20057;-73
2022/11/23 02:32:24;;;;;;;8.70;3.95;;;;;;;4.40;70.35;97831.19;5185310;28;20057;-73
2022/11/23 02:35:18;;;;;;;10.55;3.95;;;;;;;4.35;70.34;97822.03;5163695;28;20050;-73
2022/11/23 02:38:08;;;;;;;6.45;3.53;;;;;;;4.56;70.90;97830.66;5168127;28;20531;-73
2022/11/23 02:40:58;;;;;;;7.28;3.33;;;;;;;4.58;70.63;97835.78;5165487;28;20058;-73
2022/11/23 02:43:51;;;;;;;11.65;3.83;;;;;;;4.52;71.64;97838.94;5162788;28;20164;-73
2022/11/23 02:46:42;;;;;;;12.38;4.25;;;;;;;4.65;71.18;97847.41;5167705;28;20052;-73
2022/11/23 02:49:32;;;;;;;8.73;3.85;;;;;;;4.64;71.36;97841.34;5167120;28;20568;-73
2022/11/23 02:52:22;;;;;;;13.70;4.45;;;;;;;4.67;70.80;97842.88;5166337;28;20057;-74
2022/11/23 02:55:12;;;;;;;8.43;3.85;;;;;;;4.72;70.73;97841.47;5168419;28;20060;-75
2022/11/23 02:58:04;;;;;;;15.02;4.63;;;;;;;4.74;71.62;97843.16;5163867;28;20050;-75
2022/11/23 03:00:54;;;;;;;15.55;4.53;;;;;;;4.71;71.32;97839.00;5171458;28;20042;-74
2022/11/23 03:03:44;;;;;;;7.55;4.13;;;;;;;4.82;71.14;97851.16;5168635;28;20515;-74
2022/11/23 03:06:35;;;;;;;9.50;4.03;;;;;;;4.84;70.72;97844.00;5166219;28;20133;-74
2022/11/23 03:09:25;;;;;;;11.13;4.07;;;;;;;4.79;71.03;97843.56;5159795;28;20136;-74
2022/11/23 03:12:16;;;;;;;11.68;4.70;;;;;;;4.93;70.85;97841.38;5161482;28;20055;-74
2022/11/23 03:15:07;;;;;;;10.15;4.40;;;;;;;4.88;71.41;97843.56;5164414;28;20540;-75
2022/11/23 03:17:59;;;;;;;11.45;4.57;;;;;;;4.85;70.73;97830.72;5166944;28;20733;-74
2022/11/23 03:20:50;;;;;;;14.18;3.63;;;;;;;4.98;71.02;97846.22;5173173;28;20116;-75
2022/11/23 03:23:40;;;;;;;9.50;3.92;;;;;;;4.82;71.09;97835.41;5183089;28;20073;-74
2022/11/23 03:26:33;;;;;;;11.27;3.95;;;;;;;4.82;70.57;97843.28;5177256;28;20437;-75
2022/11/23 03:29:31;;;;;;;8.27;3.25;;;;;;;4.87;71.61;97836.66;5163962;28;20046;-74
2022/11/23 03:32:27;;;;;;;6.35;2.58;;;;;;;4.93;71.15;97832.66;5162842;28;20758;-74
2022/11/23 03:35:17;;;;;;;13.30;4.07;;;;;;;4.93;71.63;97836.13;5166164;28;20053;-74
2022/11/23 03:38:25;;;;;;;9.65;2.97;;;;;;;4.94;71.78;97836.97;5177642;28;20101;-74
2022/11/23 03:41:15;;;;;;;8.65;2.40;;;;;;;5.28;72.25;97837.38;5148662;28;20428;-74
2022/11/23 03:44:14;;;;;;;9.00;3.22;;;;;;;5.38;71.03;97847.88;5166644;28;20126;-74
2022/11/23 03:47:05;;;;;;;12.50;4.32;;;;;;;5.30;70.74;97850.41;5175160;28;20076;-74
2022/11/23 03:49:58;;;;;;;7.65;3.10;;;;;;;5.23;70.73;97844.00;5168088;28;20054;-75
2022/11/23 03:52:48;;;;;;;10.38;4.22;;;;;;;5.18;70.85;97837.38;5189422;28;20060;-75
2022/11/23 03:55:38;;;;;;;8.15;4.00;;;;;;;5.26;70.95;97833.22;5182835;28;20057;-74
2022/11/23 03:58:29;;;;;;;12.20;4.40;;;;;;;4.93;71.84;97830.03;5183656;28;20128;-75
2022/11/23 04:01:21;;;;;;;10.77;4.30;;;;;;;5.12;72.22;97832.66;5182150;28;20056;-74
2022/11/23 04:04:18;;;;;;;8.75;3.40;;;;;;;5.30;71.68;97834.63;5166566;28;20053;-75
2022/11/23 04:07:20;;;;;;;7.22;3.60;;;;;;;5.45;71.27;97827.13;5170059;28;20069;-75
2022/11/23 04:10:18;;;;;;;12.18;4.90;;;;;;;5.41;71.06;97826.59;5180583;28;20054;-74
2022/11/23 04:13:23;;;;;;;14.85;4.43;;;;;;;5.43;71.24;97811.50;5186040;28;20058;-75
2022/11/23 04:16:13;;;;;;;9.35;4.57;;;;;;;5.48;69.86;97818.97;5180142;28;20164;-73
2022/11/23 04:19:04;;;;;;;12.27;5.45;;;;;;;5.50;70.99;97823.13;5165618;28;20174;-73
2022/11/23 04:21:55;;;;;;;9.48;5.40;;;;;;;5.42;70.94;97809.84;5169442;28;20080;-73
2022/11/23 04:24:45;;;;;;;12.75;5.78;;;;;;;5.58;70.87;97815.34;5176799;28;20083;-73
2022/11/23 04:27:36;;;;;;;13.13;4.78;;;;;;;5.64;70.19;97811.31;5186308;28;20176;-73
2022/11/23 04:30:26;;;;;;;14.40;2.85;;;;;;;5.99;70.70;97820.38;5165474;28;20050;-73
2022/11/23 04:33:19;;;;;;;19.02;3.40;;;;;;;6.07;69.21;97808.19;5171248;28;20159;-73
2022/11/23 04:36:10;;;;;;;8.70;2.70;;;;;;;6.32;69.26;97811.97;5177285;28;20050;-73
2022/11/23 04:39:01;;;;;;;10.65;2.00;;;;;;;6.29;69.45;97806.13;5176478;28;20055;-73
2022/11/23 04:41:59;;;;;;;8.30;2.72;;;;;;;6.43;68.99;97812.75;5179500;28;20070;-73
2022/11/23 04:44:49;;;;;;;8.52;2.50;;;;;;;6.41;67.75;97809.41;5168023;28;20053;-73
2022/11/23 04:47:40;;;;;;;8.80;2.67;;;;;;;6.52;68.30;97811.84;5170121;28;20058;-73
2022/11/23 04:50:36;;;;;;;9.68;2.67;;;;;;;6.54;67.75;97817.81;5182112;28;20061;-73
2022/11/23 04:53:30;;;;;;;11.98;2.72;;;;;;;6.56;68.41;97814.06;5182876;28;20053;-73
2022/11/23 04:56:21;;;;;;;9.00;2.90;;;;;;;6.54;68.00;97807.25;5170127;28;20804;-73
2022/11/23 04:59:12;;;;;;;10.98;2.22;;;;;;;6.54;67.87;97804.63;5168181;28;20061;-73
2022/11/23 05:02:02;;;;;;;11.60;3.15;;;;;;;6.52;67.95;97817.97;5166091;28;20050;-73
2022/11/23 05:05:10;;;;;;;7.65;3.13;;;;;;;6.42;68.07;97809.25;5178259;28;20065;-73
2022/11/23 05:08:00;;;;;;;14.07;3.90;;;;;;;6.35;67.83;97806.38;5145050;28;20053;-73
2022/11/23 05:11:06;;;;;;;8.70;2.72;;;;;;;6.22;68.40;97807.69;5178888;28;20139;-73
2022/11/23 05:13:56;;;;;;;11.82;2.25;;;;;;;6.22;67.77;97802.44;5179934;28;20188;-73
2022/11/23 05:16:47;;;;;;;15.38;2.55;;;;;;;6.38;67.37;97812.34;5169124;28;20056;-73
2022/11/23 05:19:38;;;;;;;8.93;2.00;;;;;;;6.36;67.84;97817.78;5166880;28;20057;-73
2022/11/23 05:22:28;;;;;;;9.35;2.17;;;;;;;6.10;68.52;97804.44;5168199;28;20109;-73
2022/11/23 05:25:18;;;;;;;8.35;1.90;;;;;;;6.01;68.27;97806.13;5167827;28;20640;-73
2022/11/23 05:28:17;;;;;;;12.38;1.98;;;;;;;6.26;67.79;97803.81;5181104;28;20050;-73
2022/11/23 05:31:28;;;;;;;5.50;2.05;;;;;;;6.24;67.25;97805.75;5169959;28;20485;-73
2022/11/23 05:34:18;;;;;;;7.68;2.20;;;;;;;6.30;67.45;97806.00;5176798;28;20048;-74
2022/11/23 05:37:09;;;;;;;13.32;1.88;;;;;;;6.42;66.95;97809.25;5172514;28;20045;-73
2022/11/23 05:40:10;;;;;;;10.10;1.77;;;;;;;6.45;67.16;97806.34;5171276;28;20057;-73
2022/11/23 05:43:01;;;;;;;12.15;2.15;;;;;;;6.55;66.72;97807.09;5180117;28;20101;-72
2022/11/23 05:45:52;;;;;;;6.28;1.92;;;;;;;6.44;67.46;97804.69;5181993;28;20060;-72
2022/11/23 05:48:44;;;;;;;15.93;1.95;;;;;;;6.55;66.21;97807.09;5180696;28;20057;-72
2022/11/23 05:51:35;;;;;;;11.07;1.80;;;;;;;6.43;66.81;97803.03;5160969;28;20116;-72
2022/11/23 05:54:25;;;;;;;14.02;2.25;;;;;;;6.55;66.11;97804.47;5167520;28;20062;-72
2022/11/23 05:57:29;;;;;;;13.93;2.10;;;;;;;6.39;66.62;97796.41;5177580;28;20057;-73
2022/11/23 06:00:20;;;;;;;10.10;2.13;;;;;;;6.53;66.32;97805.63;5171532;28;20054;-72
2022/11/23 06:03:19;;;;;;;9.55;2.25;;;;;;;6.54;66.90;97808.09;5168488;28;20053;-74
2022/11/23 06:06:10;;;;;;;8.07;1.70;;;;;;;6.49;66.34;97799.81;5181845;28;20057;-73
2022/11/23 06:09:03;;;;;;;15.97;1.83;;;;;;;6.50;66.17;97787.47;5159154;28;20068;-73
2022/11/23 06:11:56;;;;;;;9.80;1.67;;;;;;;6.48;66.15;97795.50;5153545;28;20645;-73
2022/11/23 06:14:46;;;;;;;8.82;2.47;;;;;;;6.41;65.86;97793.63;5168779;28;20508;-73
2022/11/23 06:17:39;;;;;;;5.47;1.67;;;;;;;6.48;66.32;97797.31;5163738;28;20077;-73
2022/11/23 06:20:35;;;;;;;11.60;2.63;;;;;;;6.34;67.24;97798.66;5164853;28;20460;-73
2022/11/23 06:23:26;;;;;;;11.85;3.10;;;;;;;6.23;67.95;97804.13;5184532;28;20070;-73
2022/11/23 06:26:19;;;;;;;12.50;4.32;;;;;;;6.24;67.46;97805.75;5166278;28;20133;-74
2022/11/23 06:29:10;;;;;;;14.38;3.15;;;;;;;6.20;67.61;97793.88;5148938;28;21455;-74
2022/11/23 06:32:01;;;;;;;14.90;2.72;;;;;;;6.28;67.96;97801.84;5167810;28;20086;-71
2022/11/23 06:34:51;;;;;;;9.40;2.00;;;;;;;6.45;67.54;97814.22;5169335;28;20046;-75
2022/11/23 06:37:50;;;;;;;6.43;2.00;;;;;;;6.54;66.66;97815.16;5169861;28;20053;-77
2022/11/23 06:40:41;;;;;;;7.38;1.90;;;;;;;6.40;66.97;97800.69;5179964;28;20182;-74
2022/11/23 06:43:31;;;;;;;6.97;1.80;;;;;;;6.57;66.82;97810.44;5165266;28;20547;-74
2022/11/23 06:46:23;;;;;;;5.18;1.92;;;;;;;6.67;66.22;97818.28;5169810;28;20184;-75
2022/11/23 06:49:20;;;;;;;7.10;2.15;;;;;;;6.43;67.68;97802.22;5170367;28;20062;-74
2022/11/23 06:52:28;;;;;;;11.80;2.60;;;;;;;6.51;67.39;97821.56;5168630;28;20058;-75
2022/11/23 06:55:18;;;;;;;7.55;2.60;;;;;;;6.53;67.22;97816.16;5166558;28;20507;-74
2022/11/23 06:58:10;;;;;;;18.45;4.68;;;;;;;6.34;68.20;97820.53;5175036;28;20058;-72
2022/11/23 07:01:01;;;;;;;17.45;4.32;;;;;;;6.33;68.07;97813.63;5166548;28;20073;-75
2022/11/23 07:03:56;;;;;;;10.63;3.05;;;;;;;6.47;67.89;97822.00;5166892;28;20053;-73
2022/11/23 07:07:03;;;;;;;10.65;2.80;;;;;;;6.59;67.01;97829.56;5163102;28;20053;-74
2022/11/23 07:10:02;;;;;;;12.52;2.60;;;;;;;6.63;67.54;97826.63;5176126;28;20420;-77
2022/11/23 07:13:08;;;;;;;8.80;2.83;;;;;;;6.66;66.86;97835.06;5164720;28;20137;-77
2022/11/23 07:15:59;;;;;;;10.02;2.85;;;;;;;6.67;67.52;97830.63;5180922;28;20575;-75
2022/11/23 07:18:49;;;;;;;9.02;2.58;;;;;;;6.79;66.90;97838.19;5169287;28;20072;-75
2022/11/23 07:21:39;;;;;;;6.57;2.38;;;;;;;6.82;67.20;97839.66;5167528;28;20092;-76
2022/11/23 07:24:30;;;;;;;9.18;2.58;;;;;;;6.95;67.35;97834.84;5184054;28;20575;-73
2022/11/23 07:27:29;;;;;;;11.25;2.75;;;;;;;7.04;66.64;97839.25;5171616;28;20050;-73
2022/11/23 07:30:20;;;;;;;12.20;3.30;;;;;;;7.06;65.99;97839.09;5158906;28;20054;-73
2022/11/23 07:33:17;;;;;;;12.02;2.58;;;;;;;7.07;67.20;97844.22;5185611;28;20050;-73
2022/11/23 07:36:08;;;;;;;12.07;2.85;;;;;;;7.05;66.29;97840.91;5184194;28;20086;-74
2022/11/23 07:39:02;;;;;;;;;;;;;;;7.24;65.87;97845.19;5162246;28;20586;-74
2022/11/23 07:41:53;;;;;;;6.03;2.28;;;;;;;7.11;66.09;97841.28;5166453;28;19928;-74
2022/11/23 07:45:04;;;;;;;8.60;3.00;;;;;;;7.43;65.89;97846.84;5167926;28;20612;-72
2022/11/23 07:48:03;;;;;;;6.65;2.70;;;;;;;7.45;65.36;97858.09;5167731;28;20057;-73
2022/11/23 07:50:54;;;;;;;9.07;2.67;;;;;;;7.76;64.12;97861.13;5172589;28;20054;-73
2022/11/23 07:53:45;;;;;;;9.70;2.20;;;;;;;7.81;64.00;97844.00;5171251;28;20105;-76
2022/11/23 07:56:35;;;;;;;10.52;2.50;;;;;;;7.76;64.07;97850.56;5169643;28;20120;-75
2022/11/23 07:59:25;;;;;;;7.57;2.55;;;;;;;7.85;63.79;97853.28;5170878;28;20451;-72
2022/11/23 08:02:15;;;;;;;8.35;2.30;;;;;;;7.73;63.80;97860.63;5171101;28;20072;-72
2022/11/23 08:05:06;;;;;;;10.68;2.83;;;;;;;8.14;63.50;97850.31;5155181;28;20049;-73
2022/11/23 08:08:03;;;;;;;8.80;2.65;;;;;;;7.69;63.07;97841.63;5182623;28;20164;-73
2022/11/23 08:10:53;;;;;;;9.70;2.72;;;;;;;7.67;64.71;97850.66;5176144;28;20422;-72
2022/11/23 08:13:44;;;;;;;8.40;3.42;;;;;;;7.73;64.99;97855.34;5172034;28;20068;-73
2022/11/23 08:16:34;;;;;;;9.10;2.22;;;;;;;8.03;62.92;97866.44;5185511;28;20080;-72
2022/11/23 08:19:24;;;;;;;13.07;2.45;;;;;;;8.80;61.36;97860.22;5326654;22;20633;-74
2022/11/23 08:22:14;;;;;;;7.57;2.25;;;;;;;9.13;61.09;97855.84;5201110;28;20740;-74
2022/11/23 08:25:05;;;;;;;11.02;2.60;;;;;;;9.10;59.22;97831.53;5202532;28;20053;-75
2022/11/23 08:28:00;;;;;;;9.88;2.40;;;;;;;9.05;59.87;97855.84;5186551;28;20112;-74
2022/11/23 08:30:50;;;;;;;10.85;2.25;;;;;;;9.08;60.56;97857.34;5198322;28;20104;-74
2022/11/23 08:33:41;;;;;;;11.85;2.85;;;;;;;9.48;58.85;97855.75;5202470;28;20144;-75
2022/11/23 08:36:31;;;;;;;9.88;2.30;;;;;;;9.30;59.58;97835.53;5202084;28;20557;-75
2022/11/23 08:39:21;;;;;;;9.00;2.08;;;;;;;9.28;60.18;97845.47;5200606;28;20069;-74
2022/11/23 08:42:11;;;;;;;7.53;2.50;;;;;;;9.43;59.33;97823.63;5202042;28;20053;-75
2022/11/23 08:45:03;;;;;;;6.40;2.58;;;;;;;9.81;59.04;97852.09;5202092;28;20243;-72
2022/11/23 08:47:58;;;;;;;12.48;2.92;;;;;;;10.12;57.92;97854.03;5201294;28;20174;-73
2022/11/23 08:50:48;;;;;;;7.78;2.22;;;;;;;10.35;57.44;97846.22;5200466;28;20053;-72
2022/11/23 08:53:38;;;;;;;9.43;2.95;;;;;;;10.67;56.28;97837.31;5200045;28;20080;-73
2022/11/23 08:56:28;;;;;;;4.28;1.85;;;;;;;10.42;56.40;97855.13;5194938;28;20303;-73
2022/11/23 08:59:19;;;;;;;9.60;1.83;;;;;;;10.50;55.56;97843.69;5196345;28;20142;-72
2022/11/23 09:02:12;;;;;;;7.45;2.20;;;;;;;9.98;57.44;97839.66;5198884;28;20440;-75
2022/11/23 09:05:03;;;;;;;8.63;1.70;;;;;;;10.37;55.24;97859.31;5195091;28;20471;-72
2022/11/23 09:07:54;;;;;;;5.65;1.98;;;;;;;10.06;56.78;97855.50;5190627;28;20807;-72
2022/11/23 09:10:44;;;;;;;8.48;2.30;;;;;;;10.32;58.22;97841.25;5199677;28;20065;-73
2022/11/23 09:13:35;;;;;;;9.60;1.75;;;;;;;9.69;57.29;97842.00;5195336;28;20045;-72
2022/11/23 09:16:25;;;;;;;12.25;2.38;;;;;;;9.37;58.59;97833.06;5192700;28;20056;-71
2022/11/23 09:19:22;;;;;;;7.63;1.92;;;;;;;9.67;58.96;97860.72;5192156;28;20060;-72
2022/11/23 09:22:13;;;;;;;7.20;1.95;;;;;;;9.57;59.22;97857.38;5192531;28;20068;-75
2022/11/23 09:25:03;;;;;;;7.70;1.98;;;;;;;9.94;58.25;97858.69;5191555;28;20048;-73
2022/11/23 09:27:58;;;;;;;7.07;2.33;;;;;;;9.99;57.21;97851.06;5195944;28;20075;-72
2022/11/23 09:30:52;;;;;;;9.30;2.20;;;;;;;9.92;57.88;97855.38;5191855;28;20576;-73
2022/11/23 09:33:42;;;;;;;5.05;1.50;;;;;;;8.94;60.38;97858.81;5202270;28;20060;-72
2022/11/23 09:36:32;;;;;;;9.85;2.00;;;;;;;9.13;59.00;97834.69;5200211;28;20123;-73
2022/11/23 09:39:24;;;;;;;6.35;2.08;;;;;;;8.94;59.89;97858.81;5195818;28;20389;-75
2022/11/23 09:42:45;;;;;;;11.60;2.33;;;;;;;9.12;59.89;97848.09;5197672;28;20418;-71
2022/11/23 09:45:54;;;;;;;14.13;2.10;;;;;;;9.09;59.05;97851.06;5196681;28;20053;-72
2022/11/23 09:48:53;;;;;;;9.45;2.35;;;;;;;8.89;59.93;97848.69;5196800;28;20428;-73
2022/11/23 09:51:43;;;;;;;10.43;2.05;;;;;;;8.77;59.85;97820.88;5192888;28;20128;-75
2022/11/23 09:54:38;;;;;;;8.52;1.92;;;;;;;9.32;59.95;97849.44;5193815;28;20098;-75
2022/11/23 09:57:31;;;;;;;10.20;3.45;;;;;;;9.56;57.59;97847.78;5192414;28;20499;-73
2022/11/23 10:00:22;;;;;;;6.45;1.67;;;;;;;9.22;58.57;97824.13;5192165;28;20428;-72
2022/11/23 10:03:14;;;;;;;14.65;3.83;;;;;;;9.55;58.60;97848.78;5193692;28;20053;-73
2022/11/23 10:06:25;;;;;;;7.82;2.30;;;;;;;9.59;57.00;97840.34;5194623;28;20519;-73
2022/11/23 10:09:33;;;;;;;9.40;1.95;;;;;;;9.88;57.46;97837.19;5193479;28;20060;-73
2022/11/23 10:12:42;;;;;;;6.22;1.67;;;;;;;9.54;57.85;97826.78;5197631;28;20062;-75
2022/11/23 10:15:56;;;;;;;10.27;1.65;;;;;;;9.17;59.37;97829.91;5191290;28;20070;-73
2022/11/23 10:19:01;;;;;;;7.80;1.65;;;;;;;9.20;59.92;97818.16;5196414;28;20052;-73
2022/11/23 10:21:57;;;;;;;10.77;1.77;;;;;;;9.17;59.05;97814.88;5193307;28;20427;-73
2022/11/23 10:24:51;;;;;;;6.85;1.60;;;;;;;9.25;59.73;97821.16;5194663;28;20558;-73
2022/11/23 10:27:42;;;;;;;;;;;;;;;9.40;58.20;97812.41;5196358;28;20053;-73
2022/11/23 10:30:33;;;;;;;8.32;1.98;;;;;;;9.32;57.80;97815.03;5197714;28;20290;-72
2022/11/23 10:33:38;;;;;;;8.20;1.75;;;;;;;9.30;58.09;97795.84;5198010;28;20065;-73
2022/11/23 10:36:28;;;;;;;6.28;2.00;;;;;;;9.55;58.52;97817.03;5193940;28;20392;-73
2022/11/23 10:39:22;;;;;;;5.53;2.03;;;;;;;9.13;58.70;97823.28;5199575;28;20752;-73
2022/11/23 10:42:32;;;;;;;7.45;2.15;;;;;;;9.25;58.50;97824.63;5193180;28;20057;-73
2022/11/23 10:45:27;;;;;;;5.72;1.95;;;;;;;9.39;58.56;97821.31;5191755;28;20049;-75
2022/11/23 10:48:37;;;;;;;6.28;1.90;;;;;;;9.58;57.37;97816.72;5196649;28;20646;-75
2022/11/23 10:51:32;;;;;;;6.78;2.00;;;;;;;9.40;58.14;97819.50;5193276;28;20481;-71
2022/11/23 10:54:30;;;;;;;8.55;2.17;;;;;;;10.03;57.18;97821.44;5196673;28;20050;-74
2022/11/23 10:57:32;;;;;;;9.98;2.30;;;;;;;10.44;56.77;97817.88;5197187;28;20049;-72
2022/11/23 11:00:25;;;;;;;7.63;1.60;;;;;;;10.19;55.70;97817.91;5196732;28;20053;-72
2022/11/23 11:03:23;;;;;;;7.03;2.10;;;;;;;10.50;56.53;97809.25;5194999;28;20552;-72
2022/11/23 11:06:29;;;;;;;16.50;6.82;;;;;;;9.97;56.47;97811.53;5200383;28;20054;-72
2022/11/23 11:09:20;;;;;;;23.95;8.02;;;;;;;9.95;56.55;97805.56;5197811;28;20060;-72
2022/11/23 11:12:17;;;;;;;13.48;5.63;;;;;;;10.65;55.12;97802.19;5198112;28;20060;-72
2022/11/23 11:15:10;;;;;;;13.93;7.28;;;;;;;10.31;55.33;97797.22;5197442;28;20131;-71
2022/11/23 11:18:01;;;;;;;9.75;2.90;;;;;;;10.86;54.55;97801.59;5195830;28;20596;-72
2022/11/23 11:20:57;;;;;;;11.65;2.10;;;;;;;10.74;54.46;97771.19;5197145;28;20049;-73
2022/11/23 11:23:53;;;;;;;6.95;1.35;;;;;;;10.88;53.52;97780.19;5198098;28;20115;-74
2022/11/23 11:26:50;;;;;;;4.93;1.80;;;;;;;10.68;54.46;97793.91;5196260;28;20203;-72
2022/11/23 11:29:43;;;;;;;7.75;1.70;;;;;;;10.20;55.37;97789.59;5196341;28;20061;-71
2022/11/23 11:32:39;;;;;;;10.20;2.20;;;;;;;10.06;56.39;97791.94;5195764;28;20064;-73
2022/11/23 11:35:33;;;;;;;10.85;2.25;;;;;;;10.55;54.40;97781.19;5197214;28;20115;-73
2022/11/23 11:38:30;;;;;;;7.68;2.00;;;;;;;10.51;54.39;97784.38;5187296;28;20072;-72
2022/11/23 11:41:24;;;;;;;8.88;2.03;;;;;;;10.73;54.05;97772.19;5194176;28;20136;-73
2022/11/23 11:44:23;;;;;;;5.65;1.80;;;;;;;10.65;54.09;97780.16;5198404;28;20054;-73
2022/11/23 11:47:30;;;;;;;6.35;1.63;;;;;;;10.78;53.48;97770.63;5193127;28;20060;-71
2022/11/23 11:50:24;;;;;;;7.78;2.35;;;;;;;10.63;54.65;97775.06;5197137;28;20068;-72
2022/11/23 11:53:35;;;;;;;7.55;1.98;;;;;;;10.57;53.51;97765.13;5201469;28;20049;-71
2022/11/23 11:56:33;;;;;;;9.80;2.13;;;;;;;10.25;55.56;97756.31;5196597;28;20061;-71
2022/11/23 11:59:32;;;;;;;11.25;2.22;;;;;;;10.76;55.16;97761.19;5194392;28;20179;-74
2022/11/23 12:02:26;;;;;;;5.35;2.30;;;;;;;10.13;55.09;97757.66;5196164;28;20061;-71
2022/11/23 12:05:24;;;;;;;8.05;2.20;;;;;;;10.41;53.21;97754.63;5191983;28;20560;-74
2022/11/23 12:08:25;;;;;;;12.38;2.70;;;;;;;10.40;53.76;97750.28;5191234;28;20058;-74
2022/11/23 12:11:15;;;;;;;12.20;2.40;;;;;;;10.43;52.75;97752.59;5195782;28;20130;-73
2022/11/23 12:14:09;;;;;;;8.15;1.95;;;;;;;10.68;52.25;97746.19;5197576;28;20060;-72
2022/11/23 12:17:25;;;;;;;9.88;2.35;;;;;;;10.58;53.86;97727.03;5194402;28;20049;-71
2022/11/23 12:20:53;;;;;;;8.07;2.00;;;;;;;10.91;50.08;97740.91;5197989;28;20557;-71
2022/11/23 12:24:09;;;;;;;3.30;1.70;;;;;;;10.85;49.42;97736.28;5198609;28;20550;-71
2022/11/23 12:27:26;;;;;;;5.03;1.52;;;;;;;10.45;51.21;97727.59;5197059;28;20519;-73
2022/11/23 12:30:35;;;;;;;4.45;1.30;;;;;;;10.48;52.29;97729.91;5197669;28;20294;-73
2022/11/23 12:33:59;;;;;;;3.85;1.60;;;;;;;10.84;49.37;97728.53;5200173;28;20140;-72
2022/11/23 12:37:05;;;;;;;4.63;1.30;;;;;;;10.57;49.42;97723.56;5198114;28;20128;-73
2022/11/23 12:40:08;;;;;;;8.35;1.60;;;;;;;11.09;47.89;97726.50;5176645;28;20059;-72
2022/11/23 12:43:12;;;;;;;3.60;1.30;;;;;;;10.86;49.79;97737.13;5194899;28;20052;-73
2022/11/23 12:46:08;;;;;;;;;;;;;;;11.01;48.25;97736.19;5196152;28;20115;-73
2022/11/23 12:49:14;;;;;;;7.38;1.40;;;;;;;11.21;48.52;97738.34;5190445;28;20063;-72
2022/11/23 12:52:25;;;;;;;4.85;1.48;;;;;;;11.01;47.96;97735.34;5192704;28;20293;-73
2022/11/23 12:55:25;;;;;;;5.75;1.20;;;;;;;10.47;49.17;97724.78;5192308;28;20057;-73
2022/11/23 12:58:24;;;;;;;4.57;1.27;;;;;;;11.01;49.15;97719.44;5194968;28;20049;-72
2022/11/23 13:01:30;;;;;;;7.93;1.30;;;;;;;10.65;48.22;97713.91;5196422;28;20199;-74
2022/11/23 13:04:50;;;;;;;2.75;0.90;;;;;;;10.83;48.43;97711.78;5201347;28;20511;-73
2022/11/23 13:07:52;;;;;;;8.07;1.15;;;;;;;10.88;48.71;97714.72;5197050;28;20569;-73
2022/11/23 13:11:14;;;;;;;5.22;1.40;;;;;;;10.52;48.60;97714.47;5195832;28;20065;-73
2022/11/23 13:14:30;;;;;;;5.80;0.98;;;;;;;10.62;48.89;97722.19;5195419;28;20120;-73
2022/11/23 13:17:34;;;;;;;3.05;1.15;;;;;;;11.29;47.13;97720.53;5212838;28;20334;-73
2022/11/23 13:20:33;;;;;;;2.63;0.88;;;;;;;11.39;48.41;97711.47;5191650;28;20451;-74
2022/11/23 13:23:23;;;;;;;6.72;0.95;;;;;;;11.04;46.92;97711.13;5193345;28;20056;-72
2022/11/23 13:26:21;;;;;;;2.28;1.10;;;;;;;11.24;47.32;97692.88;5193480;28;20057;-74
2022/11/23 13:29:49;;;;;;;7.10;1.00;;;;;;;11.41;47.28;97705.00;5192156;28;20049;-72
2022/11/23 13:32:41;;;;;;;2.55;0.75;;;;;;;10.99;47.25;97701.06;5193605;28;20141;-74
2022/11/23 13:35:46;;;;;;;2.08;0.77;;;;;;;11.18;49.14;97705.03;5195833;28;20514;-74
2022/11/23 13:38:41;;;;;;;4.15;1.00;;;;;;;11.53;45.95;97684.16;5195280;28;20052;-73
2022/11/23 13:41:34;;;;;;;9.55;1.05;;;;;;;11.45;46.61;97684.22;5196697;28;20515;-73
2022/11/23 13:44:27;;;;;;;1.73;0.70;;;;;;;11.22;47.69;97676.31;5194422;28;20420;-73
2022/11/23 13:47:18;;;;;;;8.13;1.08;;;;;;;10.69;49.51;97684.19;5200230;28;20404;-73